sensor_id;sensor_type;location;lat;lon;timestamp;temperature;humidity
49242;DHT22;35079;52.704;13.814;2022-09-03T00:02:24;13.40;89.50
49242;DHT22;35079;52.704;13.814;2022-09-03T00:08:05;13.30;89.70
49242;DHT22;35079;52.704;13.814;2022-09-03T00:10:42;13.30;89.70
49242;DHT22;35079;52.704;13.814;2022-09-03T00:13:14;13.30;89.80
49242;DHT22;35079;52.704;13.814;2022-09-03T00:15:40;13.40;90.00
49242;DHT22;35079;52.704;13.814;2022-09-03T00:18:18;13.20;90.00
49242;DHT22;35079;52.704;13.814;2022-09-03T00:20:51;13.40;89.80
49242;DHT22;35079;52.704;13.814;2022-09-03T00:23:25;13.30;90.20
49242;DHT22;35079;52.704;13.814;2022-09-03T00:25:58;13.20;90.10
49242;DHT22;35079;52.704;13.814;2022-09-03T00:28:34;13.20;90.40
49242;DHT22;35079;52.704;13.814;2022-09-03T00:33:38;13.10;90.70
49242;DHT22;35079;52.704;13.814;2022-09-03T00:36:15;13.00;90.60
49242;DHT22;35079;52.704;13.814;2022-09-03T00:38:42;13.10;90.90
49242;DHT22;35079;52.704;13.814;2022-09-03T00:41:34;13.00;90.70
49242;DHT22;35079;52.704;13.814;2022-09-03T00:47:10;12.80;91.10
49242;DHT22;35079;52.704;13.814;2022-09-03T00:55:53;12.70;91.40
49242;DHT22;35079;52.704;13.814;2022-09-03T00:58:57;12.80;91.50
49242;DHT22;35079;52.704;13.814;2022-09-03T01:06:45;12.70;91.70
49242;DHT22;35079;52.704;13.814;2022-09-03T01:18:10;12.70;91.90
49242;DHT22;35079;52.704;13.814;2022-09-03T01:20:43;12.70;91.90
49242;DHT22;35079;52.704;13.814;2022-09-03T01:23:42;12.70;92.00
49242;DHT22;35079;52.704;13.814;2022-09-03T01:26:38;12.50;92.10
49242;DHT22;35079;52.704;13.814;2022-09-03T01:32:21;12.50;92.60
49242;DHT22;35079;52.704;13.814;2022-09-03T01:34:59;12.50;92.60
49242;DHT22;35079;52.704;13.814;2022-09-03T01:37:35;12.30;92.80
49242;DHT22;35079;52.704;13.814;2022-09-03T01:40:32;12.30;92.90
49242;DHT22;35079;52.704;13.814;2022-09-03T01:43:34;12.30;92.80
49242;DHT22;35079;52.704;13.814;2022-09-03T01:46:08;12.30;93.20
49242;DHT22;35079;52.704;13.814;2022-09-03T01:51:22;12.30;93.50
49242;DHT22;35079;52.704;13.814;2022-09-03T01:54:25;12.20;93.60
49242;DHT22;35079;52.704;13.814;2022-09-03T02:00:10;12.10;94.00
49242;DHT22;35079;52.704;13.814;2022-09-03T02:02:42;12.10;94.10
49242;DHT22;35079;52.704;13.814;2022-09-03T02:05:12;12.20;94.00
49242;DHT22;35079;52.704;13.814;2022-09-03T02:07:50;12.20;94.10
49242;DHT22;35079;52.704;13.814;2022-09-03T02:10:23;12.10;94.40
49242;DHT22;35079;52.704;13.814;2022-09-03T02:12:55;12.20;94.40
49242;DHT22;35079;52.704;13.814;2022-09-03T02:15:22;12.10;94.20
49242;DHT22;35079;52.704;13.814;2022-09-03T02:17:50;12.10;94.50
49242;DHT22;35079;52.704;13.814;2022-09-03T02:20:22;12.10;94.70
49242;DHT22;35079;52.704;13.814;2022-09-03T02:22:49;12.00;94.70
49242;DHT22;35079;52.704;13.814;2022-09-03T02:25:15;12.00;95.10
49242;DHT22;35079;52.704;13.814;2022-09-03T02:27:42;12.10;95.10
49242;DHT22;35079;52.704;13.814;2022-09-03T02:30:09;12.10;95.00
49242;DHT22;35079;52.704;13.814;2022-09-03T02:32:35;12.20;94.90
49242;DHT22;35079;52.704;13.814;2022-09-03T02:35:00;12.30;94.90
49242;DHT22;35079;52.704;13.814;2022-09-03T02:37:26;12.20;95.40
49242;DHT22;35079;52.704;13.814;2022-09-03T02:39:52;12.20;95.20
49242;DHT22;35079;52.704;13.814;2022-09-03T02:42:18;12.20;95.50
49242;DHT22;35079;52.704;13.814;2022-09-03T02:44:48;12.20;95.70
49242;DHT22;35079;52.704;13.814;2022-09-03T02:47:14;12.10;95.70
49242;DHT22;35079;52.704;13.814;2022-09-03T02:49:40;12.20;95.80
49242;DHT22;35079;52.704;13.814;2022-09-03T02:52:08;12.40;96.10
49242;DHT22;35079;52.704;13.814;2022-09-03T02:54:37;12.30;96.00
49242;DHT22;35079;52.704;13.814;2022-09-03T02:57:11;12.30;96.10
49242;DHT22;35079;52.704;13.814;2022-09-03T02:59:37;12.30;96.30
49242;DHT22;35079;52.704;13.814;2022-09-03T03:02:04;12.40;96.50
49242;DHT22;35079;52.704;13.814;2022-09-03T03:04:30;12.40;96.70
49242;DHT22;35079;52.704;13.814;2022-09-03T03:06:56;12.50;96.70
49242;DHT22;35079;52.704;13.814;2022-09-03T03:09:22;12.40;97.10
49242;DHT22;35079;52.704;13.814;2022-09-03T03:11:48;12.60;97.20
49242;DHT22;35079;52.704;13.814;2022-09-03T03:14:16;12.40;97.50
49242;DHT22;35079;52.704;13.814;2022-09-03T03:16:42;12.50;97.90
49242;DHT22;35079;52.704;13.814;2022-09-03T03:19:07;12.50;98.00
49242;DHT22;35079;52.704;13.814;2022-09-03T03:21:33;12.50;98.20
49242;DHT22;35079;52.704;13.814;2022-09-03T03:24:00;12.40;98.40
49242;DHT22;35079;52.704;13.814;2022-09-03T03:26:26;12.50;98.90
49242;DHT22;35079;52.704;13.814;2022-09-03T03:28:56;12.50;98.90
49242;DHT22;35079;52.704;13.814;2022-09-03T03:31:22;12.60;99.10
49242;DHT22;35079;52.704;13.814;2022-09-03T03:33:52;12.60;99.20
49242;DHT22;35079;52.704;13.814;2022-09-03T03:36:18;12.70;99.40
49242;DHT22;35079;52.704;13.814;2022-09-03T03:38:44;12.70;99.50
49242;DHT22;35079;52.704;13.814;2022-09-03T03:41:15;12.90;99.50
49242;DHT22;35079;52.704;13.814;2022-09-03T03:43:42;12.90;99.80
49242;DHT22;35079;52.704;13.814;2022-09-03T03:46:07;12.80;99.90
49242;DHT22;35079;52.704;13.814;2022-09-03T03:48:34;12.80;99.90
49242;DHT22;35079;52.704;13.814;2022-09-03T03:51:02;12.70;99.90
49242;DHT22;35079;52.704;13.814;2022-09-03T03:53:30;12.80;99.90
49242;DHT22;35079;52.704;13.814;2022-09-03T03:56:00;12.80;99.90
49242;DHT22;35079;52.704;13.814;2022-09-03T03:58:27;12.70;99.90
49242;DHT22;35079;52.704;13.814;2022-09-03T04:00:53;12.80;99.90
49242;DHT22;35079;52.704;13.814;2022-09-03T04:03:19;12.70;99.90
49242;DHT22;35079;52.704;13.814;2022-09-03T04:05:57;12.80;99.90
49242;DHT22;35079;52.704;13.814;2022-09-03T04:08:24;12.80;99.90
49242;DHT22;35079;52.704;13.814;2022-09-03T04:10:50;12.70;99.90
49242;DHT22;35079;52.704;13.814;2022-09-03T04:13:16;12.80;99.90
49242;DHT22;35079;52.704;13.814;2022-09-03T04:15:42;12.90;99.90
49242;DHT22;35079;52.704;13.814;2022-09-03T04:18:07;12.90;99.90
49242;DHT22;35079;52.704;13.814;2022-09-03T04:20:35;12.70;99.90
49242;DHT22;35079;52.704;13.814;2022-09-03T04:23:00;12.70;99.90
49242;DHT22;35079;52.704;13.814;2022-09-03T04:25:26;12.70;99.90
49242;DHT22;35079;52.704;13.814;2022-09-03T04:27:52;12.70;99.90
49242;DHT22;35079;52.704;13.814;2022-09-03T04:30:18;12.80;99.90
49242;DHT22;35079;52.704;13.814;2022-09-03T04:32:44;12.70;99.90
49242;DHT22;35079;52.704;13.814;2022-09-03T04:35:24;12.70;99.90
49242;DHT22;35079;52.704;13.814;2022-09-03T04:37:50;12.70;99.90
49242;DHT22;35079;52.704;13.814;2022-09-03T04:40:16;12.80;99.90
49242;DHT22;35079;52.704;13.814;2022-09-03T04:42:42;12.80;99.90
49242;DHT22;35079;52.704;13.814;2022-09-03T04:45:09;12.70;99.90
49242;DHT22;35079;52.704;13.814;2022-09-03T04:47:36;12.60;99.90
49242;DHT22;35079;52.704;13.814;2022-09-03T04:50:04;12.60;99.90
49242;DHT22;35079;52.704;13.814;2022-09-03T04:52:30;12.60;99.90
49242;DHT22;35079;52.704;13.814;2022-09-03T04:54:57;12.70;99.90
49242;DHT22;35079;52.704;13.814;2022-09-03T04:57:22;12.80;99.90
49242;DHT22;35079;52.704;13.814;2022-09-03T04:59:48;12.70;99.90
49242;DHT22;35079;52.704;13.814;2022-09-03T05:02:14;12.70;99.90
49242;DHT22;35079;52.704;13.814;2022-09-03T05:04:40;12.80;99.90
49242;DHT22;35079;52.704;13.814;2022-09-03T05:07:06;12.80;99.90
49242;DHT22;35079;52.704;13.814;2022-09-03T05:09:32;12.80;99.90
49242;DHT22;35079;52.704;13.814;2022-09-03T05:11:58;13.00;99.90
49242;DHT22;35079;52.704;13.814;2022-09-03T05:14:23;12.90;99.90
49242;DHT22;35079;52.704;13.814;2022-09-03T05:16:49;13.00;99.90
49242;DHT22;35079;52.704;13.814;2022-09-03T05:19:14;13.10;99.90
49242;DHT22;35079;52.704;13.814;2022-09-03T05:21:40;13.30;99.90
49242;DHT22;35079;52.704;13.814;2022-09-03T05:24:07;13.20;99.90
49242;DHT22;35079;52.704;13.814;2022-09-03T05:26:37;13.20;99.90
49242;DHT22;35079;52.704;13.814;2022-09-03T05:29:04;13.20;99.90
49242;DHT22;35079;52.704;13.814;2022-09-03T05:31:35;13.30;99.90
49242;DHT22;35079;52.704;13.814;2022-09-03T05:34:03;13.10;99.90
49242;DHT22;35079;52.704;13.814;2022-09-03T05:36:35;13.20;99.90
49242;DHT22;35079;52.704;13.814;2022-09-03T05:39:01;13.30;99.90
49242;DHT22;35079;52.704;13.814;2022-09-03T05:41:28;13.50;99.90
49242;DHT22;35079;52.704;13.814;2022-09-03T05:43:55;13.70;99.90
49242;DHT22;35079;52.704;13.814;2022-09-03T05:46:22;13.80;99.90
49242;DHT22;35079;52.704;13.814;2022-09-03T05:48:52;14.10;99.90
49242;DHT22;35079;52.704;13.814;2022-09-03T05:51:18;14.10;99.90
49242;DHT22;35079;52.704;13.814;2022-09-03T05:53:46;14.20;99.90
49242;DHT22;35079;52.704;13.814;2022-09-03T05:56:14;14.30;99.90
49242;DHT22;35079;52.704;13.814;2022-09-03T05:58:43;14.20;99.90
49242;DHT22;35079;52.704;13.814;2022-09-03T06:01:18;14.40;99.90
49242;DHT22;35079;52.704;13.814;2022-09-03T06:03:46;14.40;99.90
49242;DHT22;35079;52.704;13.814;2022-09-03T06:06:13;14.40;99.90
49242;DHT22;35079;52.704;13.814;2022-09-03T06:08:39;14.30;99.90
49242;DHT22;35079;52.704;13.814;2022-09-03T06:11:06;14.20;99.90
49242;DHT22;35079;52.704;13.814;2022-09-03T06:13:33;14.10;99.90
49242;DHT22;35079;52.704;13.814;2022-09-03T06:16:01;14.00;99.90
49242;DHT22;35079;52.704;13.814;2022-09-03T06:18:29;14.00;99.90
49242;DHT22;35079;52.704;13.814;2022-09-03T06:21:04;14.00;99.90
49242;DHT22;35079;52.704;13.814;2022-09-03T06:23:30;14.20;99.90
49242;DHT22;35079;52.704;13.814;2022-09-03T06:26:10;14.20;99.90
49242;DHT22;35079;52.704;13.814;2022-09-03T06:28:38;14.30;99.90
49242;DHT22;35079;52.704;13.814;2022-09-03T06:31:07;14.30;99.90
49242;DHT22;35079;52.704;13.814;2022-09-03T06:33:35;14.30;99.90
49242;DHT22;35079;52.704;13.814;2022-09-03T06:36:03;14.10;99.90
49242;DHT22;35079;52.704;13.814;2022-09-03T06:38:30;14.10;99.90
49242;DHT22;35079;52.704;13.814;2022-09-03T06:40:59;14.20;99.90
49242;DHT22;35079;52.704;13.814;2022-09-03T06:43:34;14.20;99.90
49242;DHT22;35079;52.704;13.814;2022-09-03T06:46:08;14.40;99.90
49242;DHT22;35079;52.704;13.814;2022-09-03T06:48:35;14.40;99.90
49242;DHT22;35079;52.704;13.814;2022-09-03T06:51:06;14.50;99.90
49242;DHT22;35079;52.704;13.814;2022-09-03T06:53:37;14.50;99.90
49242;DHT22;35079;52.704;13.814;2022-09-03T06:56:06;14.80;99.90
49242;DHT22;35079;52.704;13.814;2022-09-03T06:58:40;14.80;99.90
49242;DHT22;35079;52.704;13.814;2022-09-03T07:03:39;14.90;99.90
49242;DHT22;35079;52.704;13.814;2022-09-03T07:06:08;14.90;99.90
49242;DHT22;35079;52.704;13.814;2022-09-03T07:08:34;15.00;99.90
49242;DHT22;35079;52.704;13.814;2022-09-03T07:11:01;15.00;99.90
49242;DHT22;35079;52.704;13.814;2022-09-03T07:13:31;15.00;99.90
49242;DHT22;35079;52.704;13.814;2022-09-03T07:16:03;14.90;99.90
49242;DHT22;35079;52.704;13.814;2022-09-03T07:18:29;14.90;99.90
49242;DHT22;35079;52.704;13.814;2022-09-03T07:21:07;15.10;99.90
49242;DHT22;35079;52.704;13.814;2022-09-03T07:23:34;15.50;99.90
49242;DHT22;35079;52.704;13.814;2022-09-03T07:26:03;15.50;99.90
49242;DHT22;35079;52.704;13.814;2022-09-03T07:28:29;15.70;99.90
49242;DHT22;35079;52.704;13.814;2022-09-03T07:31:02;15.70;99.90
49242;DHT22;35079;52.704;13.814;2022-09-03T07:33:29;15.60;99.90
49242;DHT22;35079;52.704;13.814;2022-09-03T07:36:00;15.70;99.90
49242;DHT22;35079;52.704;13.814;2022-09-03T07:38:26;15.80;99.60
49242;DHT22;35079;52.704;13.814;2022-09-03T07:40:57;15.70;99.90
49242;DHT22;35079;52.704;13.814;2022-09-03T07:43:27;15.80;99.50
49242;DHT22;35079;52.704;13.814;2022-09-03T07:45:54;15.70;99.70
49242;DHT22;35079;52.704;13.814;2022-09-03T07:48:22;16.00;99.70
49242;DHT22;35079;52.704;13.814;2022-09-03T07:50:48;16.00;99.00
49242;DHT22;35079;52.704;13.814;2022-09-03T07:53:17;16.20;99.90
49242;DHT22;35079;52.704;13.814;2022-09-03T07:55:45;16.30;99.90
49242;DHT22;35079;52.704;13.814;2022-09-03T07:58:11;16.40;99.50
49242;DHT22;35079;52.704;13.814;2022-09-03T08:00:38;16.50;99.50
49242;DHT22;35079;52.704;13.814;2022-09-03T08:03:05;16.60;99.10
49242;DHT22;35079;52.704;13.814;2022-09-03T08:05:34;16.50;98.20
49242;DHT22;35079;52.704;13.814;2022-09-03T08:08:04;16.40;98.60
49242;DHT22;35079;52.704;13.814;2022-09-03T08:10:34;16.30;99.10
49242;DHT22;35079;52.704;13.814;2022-09-03T08:13:00;16.50;99.90
49242;DHT22;35079;52.704;13.814;2022-09-03T08:15:26;16.90;99.40
49242;DHT22;35079;52.704;13.814;2022-09-03T08:17:52;16.90;97.60
49242;DHT22;35079;52.704;13.814;2022-09-03T08:20:18;17.00;97.40
49242;DHT22;35079;52.704;13.814;2022-09-03T08:22:45;16.90;97.70
49242;DHT22;35079;52.704;13.814;2022-09-03T08:25:10;17.40;98.00
49242;DHT22;35079;52.704;13.814;2022-09-03T08:27:36;17.90;96.30
49242;DHT22;35079;52.704;13.814;2022-09-03T08:30:02;18.00;95.10
49242;DHT22;35079;52.704;13.814;2022-09-03T08:32:28;18.00;94.30
49242;DHT22;35079;52.704;13.814;2022-09-03T08:34:54;18.30;94.30
49242;DHT22;35079;52.704;13.814;2022-09-03T08:37:20;18.30;93.40
49242;DHT22;35079;52.704;13.814;2022-09-03T08:39:48;18.10;93.80
49242;DHT22;35079;52.704;13.814;2022-09-03T08:43:08;18.40;94.30
49242;DHT22;35079;52.704;13.814;2022-09-03T08:45:09;18.50;93.90
49242;DHT22;35079;52.704;13.814;2022-09-03T08:47:44;18.70;92.00
49242;DHT22;35079;52.704;13.814;2022-09-03T08:50:22;18.80;92.50
49242;DHT22;35079;52.704;13.814;2022-09-03T08:55:55;19.70;90.40
49242;DHT22;35079;52.704;13.814;2022-09-03T08:58:26;20.40;91.10
49242;DHT22;35079;52.704;13.814;2022-09-03T09:15:12;22.00;75.40
49242;DHT22;35079;52.704;13.814;2022-09-03T09:23:05;22.80;74.20
49242;DHT22;35079;52.704;13.814;2022-09-03T09:25:38;23.50;75.70
49242;DHT22;35079;52.704;13.814;2022-09-03T09:28:20;23.60;68.40
49242;DHT22;35079;52.704;13.814;2022-09-03T09:30:47;24.30;67.70
49242;DHT22;35079;52.704;13.814;2022-09-03T09:33:14;24.70;66.10
49242;DHT22;35079;52.704;13.814;2022-09-03T09:35:41;25.30;65.40
49242;DHT22;35079;52.704;13.814;2022-09-03T09:38:09;26.10;62.40
49242;DHT22;35079;52.704;13.814;2022-09-03T09:40:40;26.60;59.90
49242;DHT22;35079;52.704;13.814;2022-09-03T09:43:16;26.20;55.40
49242;DHT22;35079;52.704;13.814;2022-09-03T09:45:52;26.20;56.50
49242;DHT22;35079;52.704;13.814;2022-09-03T09:48:25;27.20;55.60
49242;DHT22;35079;52.704;13.814;2022-09-03T09:51:24;27.80;56.10
49242;DHT22;35079;52.704;13.814;2022-09-03T09:54:13;28.10;53.10
49242;DHT22;35079;52.704;13.814;2022-09-03T09:56:43;28.00;50.20
49242;DHT22;35079;52.704;13.814;2022-09-03T09:59:10;27.50;47.80
49242;DHT22;35079;52.704;13.814;2022-09-03T10:01:39;27.30;47.60
49242;DHT22;35079;52.704;13.814;2022-09-03T10:04:09;27.90;50.30
49242;DHT22;35079;52.704;13.814;2022-09-03T10:06:35;28.20;48.50
49242;DHT22;35079;52.704;13.814;2022-09-03T10:09:26;27.60;48.20
49242;DHT22;35079;52.704;13.814;2022-09-03T10:14:37;27.30;48.10
49242;DHT22;35079;52.704;13.814;2022-09-03T10:22:42;27.10;48.00
49242;DHT22;35079;52.704;13.814;2022-09-03T10:25:13;28.20;48.70
49242;DHT22;35079;52.704;13.814;2022-09-03T10:27:39;28.80;47.50
49242;DHT22;35079;52.704;13.814;2022-09-03T10:30:07;28.10;46.60
49242;DHT22;35079;52.704;13.814;2022-09-03T10:33:01;28.00;44.80
49242;DHT22;35079;52.704;13.814;2022-09-03T10:35:31;27.80;47.10
49242;DHT22;35079;52.704;13.814;2022-09-03T10:40:48;26.50;45.40
49242;DHT22;35079;52.704;13.814;2022-09-03T10:46:10;27.20;46.50
49242;DHT22;35079;52.704;13.814;2022-09-03T10:48:39;27.40;47.00
49242;DHT22;35079;52.704;13.814;2022-09-03T10:52:01;27.60;46.40
49242;DHT22;35079;52.704;13.814;2022-09-03T11:02:39;26.10;48.10
49242;DHT22;35079;52.704;13.814;2022-09-03T11:08:02;25.10;47.50
49242;DHT22;35079;52.704;13.814;2022-09-03T11:10:32;25.20;49.80
49242;DHT22;35079;52.704;13.814;2022-09-03T11:13:16;24.50;49.40
49242;DHT22;35079;52.704;13.814;2022-09-03T11:15:52;23.80;49.10
49242;DHT22;35079;52.704;13.814;2022-09-03T11:18:26;23.80;50.70
49242;DHT22;35079;52.704;13.814;2022-09-03T11:20:56;24.40;50.40
49242;DHT22;35079;52.704;13.814;2022-09-03T11:23:25;24.20;49.10
49242;DHT22;35079;52.704;13.814;2022-09-03T11:25:54;24.10;49.50
49242;DHT22;35079;52.704;13.814;2022-09-03T11:31:30;23.10;52.40
49242;DHT22;35079;52.704;13.814;2022-09-03T11:34:46;23.10;53.10
49242;DHT22;35079;52.704;13.814;2022-09-03T11:36:46;23.20;53.10
49242;DHT22;35079;52.704;13.814;2022-09-03T11:39:18;24.00;52.80
49242;DHT22;35079;52.704;13.814;2022-09-03T11:41:56;24.30;50.70
49242;DHT22;35079;52.704;13.814;2022-09-03T11:44:23;24.10;51.10
49242;DHT22;35079;52.704;13.814;2022-09-03T11:46:59;24.90;50.90
49242;DHT22;35079;52.704;13.814;2022-09-03T11:49:30;25.30;48.80
49242;DHT22;35079;52.704;13.814;2022-09-03T11:52:02;25.10;49.40
49242;DHT22;35079;52.704;13.814;2022-09-03T11:54:32;24.60;49.90
49242;DHT22;35079;52.704;13.814;2022-09-03T11:59:36;24.70;51.30
49242;DHT22;35079;52.704;13.814;2022-09-03T12:08:06;23.00;51.80
49242;DHT22;35079;52.704;13.814;2022-09-03T12:13:35;22.70;54.10
49242;DHT22;35079;52.704;13.814;2022-09-03T12:16:40;22.80;53.10
49242;DHT22;35079;52.704;13.814;2022-09-03T12:19:57;22.60;52.00
49242;DHT22;35079;52.704;13.814;2022-09-03T12:21:58;22.40;54.20
49242;DHT22;35079;52.704;13.814;2022-09-03T12:24:26;22.70;55.00
49242;DHT22;35079;52.704;13.814;2022-09-03T12:26:58;22.70;54.60
49242;DHT22;35079;52.704;13.814;2022-09-03T12:29:27;22.40;55.50
49242;DHT22;35079;52.704;13.814;2022-09-03T12:31:53;22.40;53.60
49242;DHT22;35079;52.704;13.814;2022-09-03T12:34:21;22.20;53.70
49242;DHT22;35079;52.704;13.814;2022-09-03T12:36:52;22.70;54.60
49242;DHT22;35079;52.704;13.814;2022-09-03T12:42:09;22.80;53.50
49242;DHT22;35079;52.704;13.814;2022-09-03T12:47:13;22.90;53.60
49242;DHT22;35079;52.704;13.814;2022-09-03T12:49:41;22.60;55.50
49242;DHT22;35079;52.704;13.814;2022-09-03T12:54:55;22.40;53.50
49242;DHT22;35079;52.704;13.814;2022-09-03T12:57:32;22.10;54.00
49242;DHT22;35079;52.704;13.814;2022-09-03T13:00:05;22.20;53.50
49242;DHT22;35079;52.704;13.814;2022-09-03T13:05:15;22.40;53.40
49242;DHT22;35079;52.704;13.814;2022-09-03T13:07:46;22.40;53.40
49242;DHT22;35079;52.704;13.814;2022-09-03T13:10:37;22.40;53.50
49242;DHT22;35079;52.704;13.814;2022-09-03T13:13:35;22.30;52.10
49242;DHT22;35079;52.704;13.814;2022-09-03T13:21:40;22.20;54.50
49242;DHT22;35079;52.704;13.814;2022-09-03T13:24:45;22.50;54.10
49242;DHT22;35079;52.704;13.814;2022-09-03T13:30:14;22.60;53.80
49242;DHT22;35079;52.704;13.814;2022-09-03T13:33:07;22.70;52.00
49242;DHT22;35079;52.704;13.814;2022-09-03T13:40:47;22.60;52.00
49242;DHT22;35079;52.704;13.814;2022-09-03T13:43:27;23.00;51.80
49242;DHT22;35079;52.704;13.814;2022-09-03T13:46:02;23.30;51.70
49242;DHT22;35079;52.704;13.814;2022-09-03T13:48:35;23.60;49.80
49242;DHT22;35079;52.704;13.814;2022-09-03T13:51:26;23.70;50.10
49242;DHT22;35079;52.704;13.814;2022-09-03T13:54:12;23.70;49.20
49242;DHT22;35079;52.704;13.814;2022-09-03T13:59:45;23.20;50.30
49242;DHT22;35079;52.704;13.814;2022-09-03T14:02:32;23.10;49.80
49242;DHT22;35079;52.704;13.814;2022-09-03T14:05:09;22.70;50.00
49242;DHT22;35079;52.704;13.814;2022-09-03T14:07:57;22.40;51.00
49242;DHT22;35079;52.704;13.814;2022-09-03T14:10:53;22.40;51.20
49242;DHT22;35079;52.704;13.814;2022-09-03T14:13:42;22.60;52.30
49242;DHT22;35079;52.704;13.814;2022-09-03T14:16:19;23.00;52.60
49242;DHT22;35079;52.704;13.814;2022-09-03T14:18:54;23.00;51.90
49242;DHT22;35079;52.704;13.814;2022-09-03T14:24:36;23.00;52.20
49242;DHT22;35079;52.704;13.814;2022-09-03T14:27:04;23.00;51.20
49242;DHT22;35079;52.704;13.814;2022-09-03T14:29:35;22.90;52.10
49242;DHT22;35079;52.704;13.814;2022-09-03T14:32:16;22.70;51.00
49242;DHT22;35079;52.704;13.814;2022-09-03T14:40:46;22.60;52.40
49242;DHT22;35079;52.704;13.814;2022-09-03T14:43:21;22.80;50.90
49242;DHT22;35079;52.704;13.814;2022-09-03T14:49:07;22.40;50.40
49242;DHT22;35079;52.704;13.814;2022-09-03T14:57:35;22.20;52.80
49242;DHT22;35079;52.704;13.814;2022-09-03T15:00:08;22.40;52.30
49242;DHT22;35079;52.704;13.814;2022-09-03T15:07:55;22.20;52.10
49242;DHT22;35079;52.704;13.814;2022-09-03T15:10:35;22.10;51.10
49242;DHT22;35079;52.704;13.814;2022-09-03T15:28:24;21.50;53.60
49242;DHT22;35079;52.704;13.814;2022-09-03T15:36:18;22.00;52.50
49242;DHT22;35079;52.704;13.814;2022-09-03T15:39:11;22.10;52.30
49242;DHT22;35079;52.704;13.814;2022-09-03T15:41:50;21.90;52.60
49242;DHT22;35079;52.704;13.814;2022-09-03T15:44:19;21.60;53.20
49242;DHT22;35079;52.704;13.814;2022-09-03T15:49:51;21.70;52.70
49242;DHT22;35079;52.704;13.814;2022-09-03T15:52:37;21.60;52.80
49242;DHT22;35079;52.704;13.814;2022-09-03T15:55:24;21.60;53.80
49242;DHT22;35079;52.704;13.814;2022-09-03T16:01:03;21.50;53.00
49242;DHT22;35079;52.704;13.814;2022-09-03T16:03:42;21.50;52.30
49242;DHT22;35079;52.704;13.814;2022-09-03T16:06:27;21.30;52.40
49242;DHT22;35079;52.704;13.814;2022-09-03T16:09:08;21.30;52.20
49242;DHT22;35079;52.704;13.814;2022-09-03T16:14:49;21.00;53.20
49242;DHT22;35079;52.704;13.814;2022-09-03T16:17:27;21.10;54.40
49242;DHT22;35079;52.704;13.814;2022-09-03T16:20:13;21.10;54.50
49242;DHT22;35079;52.704;13.814;2022-09-03T16:25:16;21.10;53.20
49242;DHT22;35079;52.704;13.814;2022-09-03T16:27:59;21.10;53.50
49242;DHT22;35079;52.704;13.814;2022-09-03T16:41:30;21.00;53.80
49242;DHT22;35079;52.704;13.814;2022-09-03T16:44:11;21.00;53.70
49242;DHT22;35079;52.704;13.814;2022-09-03T17:19:25;20.10;55.70
49242;DHT22;35079;52.704;13.814;2022-09-03T17:27:18;19.90;56.40
49242;DHT22;35079;52.704;13.814;2022-09-03T17:35:49;19.70;57.30
49242;DHT22;35079;52.704;13.814;2022-09-03T17:38:18;19.60;57.90
49242;DHT22;35079;52.704;13.814;2022-09-03T17:41:05;19.60;58.10
49242;DHT22;35079;52.704;13.814;2022-09-03T17:47:06;19.50;57.90
49242;DHT22;35079;52.704;13.814;2022-09-03T17:49:49;19.40;58.70
49242;DHT22;35079;52.704;13.814;2022-09-03T17:54:47;19.40;58.60
49242;DHT22;35079;52.704;13.814;2022-09-03T17:59:51;19.10;58.80
49242;DHT22;35079;52.704;13.814;2022-09-03T18:02:22;19.00;59.40
49242;DHT22;35079;52.704;13.814;2022-09-03T18:07:41;18.80;60.20
49242;DHT22;35079;52.704;13.814;2022-09-03T18:13:23;18.70;60.70
49242;DHT22;35079;52.704;13.814;2022-09-03T18:18:31;18.50;61.00
49242;DHT22;35079;52.704;13.814;2022-09-03T18:21:05;18.40;61.40
49242;DHT22;35079;52.704;13.814;2022-09-03T18:27:55;18.30;61.70
49242;DHT22;35079;52.704;13.814;2022-09-03T18:30:40;18.20;61.20
49242;DHT22;35079;52.704;13.814;2022-09-03T18:33:24;18.10;62.30
49242;DHT22;35079;52.704;13.814;2022-09-03T18:36:10;18.20;62.80
49242;DHT22;35079;52.704;13.814;2022-09-03T18:39:07;18.10;62.50
49242;DHT22;35079;52.704;13.814;2022-09-03T18:42:25;18.10;62.20
49242;DHT22;35079;52.704;13.814;2022-09-03T18:50:58;17.90;62.80
49242;DHT22;35079;52.704;13.814;2022-09-03T18:56:48;18.00;63.40
49242;DHT22;35079;52.704;13.814;2022-09-03T18:59:58;17.90;63.50
49242;DHT22;35079;52.704;13.814;2022-09-03T19:06:11;17.90;63.90
49242;DHT22;35079;52.704;13.814;2022-09-03T19:09:52;17.90;64.20
49242;DHT22;35079;52.704;13.814;2022-09-03T19:15:36;17.70;64.70
49242;DHT22;35079;52.704;13.814;2022-09-03T19:21:55;17.60;64.50
49242;DHT22;35079;52.704;13.814;2022-09-03T19:24:40;17.60;65.00
49242;DHT22;35079;52.704;13.814;2022-09-03T19:27:29;17.70;64.80
49242;DHT22;35079;52.704;13.814;2022-09-03T19:33:32;17.50;65.50
49242;DHT22;35079;52.704;13.814;2022-09-03T19:42:32;17.30;65.80
49242;DHT22;35079;52.704;13.814;2022-09-03T19:45:24;17.40;66.00
49242;DHT22;35079;52.704;13.814;2022-09-03T19:48:42;17.30;65.90
49242;DHT22;35079;52.704;13.814;2022-09-03T19:54:35;17.40;66.30
49242;DHT22;35079;52.704;13.814;2022-09-03T19:57:20;17.30;66.00
49242;DHT22;35079;52.704;13.814;2022-09-03T20:00:05;17.40;65.70
49242;DHT22;35079;52.704;13.814;2022-09-03T20:02:49;17.30;65.60
49242;DHT22;35079;52.704;13.814;2022-09-03T20:05:36;17.50;66.20
49242;DHT22;35079;52.704;13.814;2022-09-03T20:08:22;17.40;66.60
49242;DHT22;35079;52.704;13.814;2022-09-03T20:11:15;17.40;66.50
49242;DHT22;35079;52.704;13.814;2022-09-03T20:13:42;17.40;66.80
49242;DHT22;35079;52.704;13.814;2022-09-03T20:16:33;17.30;66.40
49242;DHT22;35079;52.704;13.814;2022-09-03T20:19:21;17.40;66.80
49242;DHT22;35079;52.704;13.814;2022-09-03T20:22:17;17.30;66.50
49242;DHT22;35079;52.704;13.814;2022-09-03T20:27:54;17.40;66.80
49242;DHT22;35079;52.704;13.814;2022-09-03T20:30:49;17.50;66.40
49242;DHT22;35079;52.704;13.814;2022-09-03T20:39:14;17.40;66.30
49242;DHT22;35079;52.704;13.814;2022-09-03T20:44:41;17.40;66.90
49242;DHT22;35079;52.704;13.814;2022-09-03T20:53:26;17.40;66.40
49242;DHT22;35079;52.704;13.814;2022-09-03T20:56:02;17.50;66.40
49242;DHT22;35079;52.704;13.814;2022-09-03T21:04:14;17.50;66.50
49242;DHT22;35079;52.704;13.814;2022-09-03T21:09:39;17.50;66.20
49242;DHT22;35079;52.704;13.814;2022-09-03T21:12:23;17.40;66.40
49242;DHT22;35079;52.704;13.814;2022-09-03T21:15:09;17.40;66.30
49242;DHT22;35079;52.704;13.814;2022-09-03T21:17:44;17.40;66.40